sensor_id;sensor_type;location;lat;lon;timestamp;pressure;altitude;pressure_sealevel;temperature;humidity
72262;BME280;60173;52.112;8.648;2022-09-20T00:00:45;100985.16;;;9.54;85.86
72262;BME280;60173;52.112;8.648;2022-09-20T00:03:12;100981.44;;;9.40;85.85
72262;BME280;60173;52.112;8.648;2022-09-20T00:05:41;100988.78;;;9.34;85.42
72262;BME280;60173;52.112;8.648;2022-09-20T00:08:11;100991.53;;;9.14;86.04
72262;BME280;60173;52.112;8.648;2022-09-20T00:10:38;100988.84;;;9.19;86.06
72262;BME280;60173;52.112;8.648;2022-09-20T00:13:06;100985.91;;;9.00;86.35
72262;BME280;60173;52.112;8.648;2022-09-20T00:15:38;100990.53;;;8.94;86.91
72262;BME280;60173;52.112;8.648;2022-09-20T00:18:04;100993.19;;;8.99;86.72
72262;BME280;60173;52.112;8.648;2022-09-20T00:20:31;100994.25;;;9.14;86.67
72262;BME280;60173;52.112;8.648;2022-09-20T00:22:57;100994.81;;;9.16;86.48
72262;BME280;60173;52.112;8.648;2022-09-20T00:25:23;100990.19;;;9.11;86.84
72262;BME280;60173;52.112;8.648;2022-09-20T00:27:50;100991.09;;;8.91;87.60
72262;BME280;60173;52.112;8.648;2022-09-20T00:30:16;100994.56;;;9.07;87.18
72262;BME280;60173;52.112;8.648;2022-09-20T00:32:42;100997.00;;;8.93;87.40
72262;BME280;60173;52.112;8.648;2022-09-20T00:35:09;100993.75;;;9.07;86.95
72262;BME280;60173;52.112;8.648;2022-09-20T00:37:42;100995.91;;;9.04;86.08
72262;BME280;60173;52.112;8.648;2022-09-20T00:40:13;100998.06;;;9.02;86.58
72262;BME280;60173;52.112;8.648;2022-09-20T00:42:40;100998.06;;;9.02;86.71
72262;BME280;60173;52.112;8.648;2022-09-20T00:45:15;101003.53;;;8.92;87.19
72262;BME280;60173;52.112;8.648;2022-09-20T00:48:26;101001.91;;;8.86;87.35
72262;BME280;60173;52.112;8.648;2022-09-20T00:50:54;101002.97;;;8.90;87.41
72262;BME280;60173;52.112;8.648;2022-09-20T00:53:28;100995.94;;;8.94;87.18
72262;BME280;60173;52.112;8.648;2022-09-20T00:56:01;100997.84;;;8.83;87.96
72262;BME280;60173;52.112;8.648;2022-09-20T00:58:32;100998.66;;;8.89;87.73
72262;BME280;60173;52.112;8.648;2022-09-20T01:01:01;101001.94;;;8.71;88.86
72262;BME280;60173;52.112;8.648;2022-09-20T01:03:30;101010.34;;;8.54;89.42
72262;BME280;60173;52.112;8.648;2022-09-20T01:06:00;101008.69;;;8.53;89.57
72262;BME280;60173;52.112;8.648;2022-09-20T01:08:28;101002.75;;;8.61;89.34
72262;BME280;60173;52.112;8.648;2022-09-20T01:10:56;100997.03;;;8.73;88.81
72262;BME280;60173;52.112;8.648;2022-09-20T01:13:22;100994.91;;;8.59;89.39
72262;BME280;60173;52.112;8.648;2022-09-20T01:15:49;100991.38;;;8.54;89.48
72262;BME280;60173;52.112;8.648;2022-09-20T01:18:18;100999.78;;;8.63;89.68
72262;BME280;60173;52.112;8.648;2022-09-20T01:20:46;101003.84;;;8.65;89.04
72262;BME280;60173;52.112;8.648;2022-09-20T01:26:13;101004.09;;;8.43;90.14
72262;BME280;60173;52.112;8.648;2022-09-20T01:28:47;101007.34;;;8.50;90.22
72262;BME280;60173;52.112;8.648;2022-09-20T01:31:23;101009.47;;;8.38;90.82
72262;BME280;60173;52.112;8.648;2022-09-20T01:34:03;101009.25;;;8.45;91.11
72262;BME280;60173;52.112;8.648;2022-09-20T01:39:56;101010.59;;;8.47;91.04
72262;BME280;60173;52.112;8.648;2022-09-20T01:42:32;101013.84;;;8.54;90.96
72262;BME280;60173;52.112;8.648;2022-09-20T01:47:49;101016.56;;;8.39;91.09
72262;BME280;60173;52.112;8.648;2022-09-20T01:53:10;101016.81;;;8.53;90.76
72262;BME280;60173;52.112;8.648;2022-09-20T01:55:59;101014.06;;;8.27;91.80
72262;BME280;60173;52.112;8.648;2022-09-20T02:04:33;101016.56;;;8.39;91.21
72262;BME280;60173;52.112;8.648;2022-09-20T02:12:51;101013.59;;;8.51;91.60
72262;BME280;60173;52.112;8.648;2022-09-20T02:24:25;101010.59;;;8.63;90.49
72262;BME280;60173;52.112;8.648;2022-09-20T02:27:16;101016.56;;;8.59;90.67
72262;BME280;60173;52.112;8.648;2022-09-20T02:32:40;101013.84;;;8.70;90.15
72262;BME280;60173;52.112;8.648;2022-09-20T02:37:56;101014.66;;;8.80;89.70
72262;BME280;60173;52.112;8.648;2022-09-20T02:46:09;101017.91;;;8.72;89.48
72262;BME280;60173;52.112;8.648;2022-09-20T02:51:20;101012.75;;;8.60;90.30
72262;BME280;60173;52.112;8.648;2022-09-20T02:56:46;101018.16;;;8.40;91.40
72262;BME280;60173;52.112;8.648;2022-09-20T02:59:28;101020.34;;;8.43;91.43
72262;BME280;60173;52.112;8.648;2022-09-20T03:02:21;101013.28;;;8.37;91.35
72262;BME280;60173;52.112;8.648;2022-09-20T03:05:13;101015.69;;;8.28;92.20
72262;BME280;60173;52.112;8.648;2022-09-20T03:10:34;101021.16;;;8.49;91.05
72262;BME280;60173;52.112;8.648;2022-09-20T03:16:04;101020.28;;;8.38;91.93
72262;BME280;60173;52.112;8.648;2022-09-20T03:22:04;101026.00;;;8.42;91.79
72262;BME280;60173;52.112;8.648;2022-09-20T03:25:08;101036.28;;;8.34;92.22
72262;BME280;60173;52.112;8.648;2022-09-20T03:27:58;101036.81;;;8.36;91.83
72262;BME280;60173;52.112;8.648;2022-09-20T03:33:28;101035.47;;;8.34;92.20
72262;BME280;60173;52.112;8.648;2022-09-20T03:38:47;101035.47;;;8.34;91.54
72262;BME280;60173;52.112;8.648;2022-09-20T03:47:29;101038.66;;;8.05;92.77
72262;BME280;60173;52.112;8.648;2022-09-20T03:58:50;101050.28;;;8.06;92.94
72262;BME280;60173;52.112;8.648;2022-09-20T04:07:12;101041.41;;;8.26;92.99
72262;BME280;60173;52.112;8.648;2022-09-20T04:12:41;101045.19;;;8.20;92.63
72262;BME280;60173;52.112;8.648;2022-09-20T04:18:34;101040.03;;;8.23;92.35
72262;BME280;60173;52.112;8.648;2022-09-20T04:21:14;101039.75;;;8.20;92.49
72262;BME280;60173;52.112;8.648;2022-09-20T04:23:45;101041.94;;;8.23;92.62
72262;BME280;60173;52.112;8.648;2022-09-20T04:26:14;101043.28;;;8.20;92.63
72262;BME280;60173;52.112;8.648;2022-09-20T04:28:50;101048.69;;;8.20;92.90
72262;BME280;60173;52.112;8.648;2022-09-20T04:33:58;101050.28;;;8.06;93.66
72262;BME280;60173;52.112;8.648;2022-09-20T04:36:56;101041.34;;;8.05;94.01
72262;BME280;60173;52.112;8.648;2022-09-20T04:39:46;101049.47;;;8.15;93.71
72262;BME280;60173;52.112;8.648;2022-09-20T04:42:51;101057.03;;;8.03;94.20
72262;BME280;60173;52.112;8.648;2022-09-20T04:48:41;101057.63;;;8.21;93.77
72262;BME280;60173;52.112;8.648;2022-09-20T05:02:53;101065.75;;;8.36;93.45
72262;BME280;60173;52.112;8.648;2022-09-20T05:17:31;101092.81;;;8.26;93.52
72262;BME280;60173;52.112;8.648;2022-09-20T05:26:28;101098.50;;;8.29;93.57
72262;BME280;60173;52.112;8.648;2022-09-20T05:29:03;101107.50;;;8.40;93.25
72262;BME280;60173;52.112;8.648;2022-09-20T05:31:40;101111.03;;;8.46;93.30
72262;BME280;60173;52.112;8.648;2022-09-20T05:34:47;101107.50;;;8.45;93.12
72262;BME280;60173;52.112;8.648;2022-09-20T05:37:34;101107.00;;;8.53;92.91
72262;BME280;60173;52.112;8.648;2022-09-20T05:40:20;101113.47;;;8.57;92.58
72262;BME280;60173;52.112;8.648;2022-09-20T05:43:04;101112.41;;;8.69;92.25
72262;BME280;60173;52.112;8.648;2022-09-20T05:46:01;101114.59;;;8.87;91.67
72262;BME280;60173;52.112;8.648;2022-09-20T05:51:16;101123.53;;;9.18;90.53
72262;BME280;60173;52.112;8.648;2022-09-20T05:53:55;101125.97;;;9.15;90.14
72262;BME280;60173;52.112;8.648;2022-09-20T05:56:48;101130.81;;;9.33;89.51
72262;BME280;60173;52.112;8.648;2022-09-20T05:59:33;101127.56;;;9.36;89.08
72262;BME280;60173;52.112;8.648;2022-09-20T06:05:12;101128.38;;;9.37;89.03
72262;BME280;60173;52.112;8.648;2022-09-20T06:07:51;101131.91;;;9.47;89.27
72262;BME280;60173;52.112;8.648;2022-09-20T06:13:08;101133.50;;;9.54;87.82
72262;BME280;60173;52.112;8.648;2022-09-20T06:16:00;101135.09;;;9.65;87.47
72262;BME280;60173;52.112;8.648;2022-09-20T06:18:42;101131.78;;;9.88;86.38
72262;BME280;60173;52.112;8.648;2022-09-20T06:21:28;101137.19;;;9.93;86.77
72262;BME280;60173;52.112;8.648;2022-09-20T06:23:59;101130.41;;;9.96;85.44
72262;BME280;60173;52.112;8.648;2022-09-20T06:26:34;101133.91;;;10.02;85.62
72262;BME280;60173;52.112;8.648;2022-09-20T06:29:04;101134.44;;;10.04;85.73
72262;BME280;60173;52.112;8.648;2022-09-20T06:31:31;101145.81;;;10.16;84.85
72262;BME280;60173;52.112;8.648;2022-09-20T06:34:12;101140.47;;;9.95;85.11
72262;BME280;60173;52.112;8.648;2022-09-20T06:36:45;101138.16;;;10.18;85.57
72262;BME280;60173;52.112;8.648;2022-09-20T06:41:45;101139.97;;;10.43;84.43
72262;BME280;60173;52.112;8.648;2022-09-20T06:44:12;101139.19;;;10.43;84.61
72262;BME280;60173;52.112;8.648;2022-09-20T06:46:38;101142.66;;;10.53;84.43
72262;BME280;60173;52.112;8.648;2022-09-20T06:49:04;101146.97;;;10.54;84.05
72262;BME280;60173;52.112;8.648;2022-09-20T06:51:36;101148.03;;;10.58;84.41
72262;BME280;60173;52.112;8.648;2022-09-20T06:54:04;101149.88;;;10.73;83.85
72262;BME280;60173;52.112;8.648;2022-09-20T06:56:32;101155.03;;;10.70;83.61
72262;BME280;60173;52.112;8.648;2022-09-20T06:59:00;101152.59;;;10.73;83.94
72262;BME280;60173;52.112;8.648;2022-09-20T07:01:26;101154.41;;;10.83;83.66
72262;BME280;60173;52.112;8.648;2022-09-20T07:03:56;101157.16;;;10.78;82.80
72262;BME280;60173;52.112;8.648;2022-09-20T07:06:23;101164.97;;;10.84;82.25
72262;BME280;60173;52.112;8.648;2022-09-20T07:08:49;101165.75;;;10.90;82.39
72262;BME280;60173;52.112;8.648;2022-09-20T07:11:16;101166.25;;;10.97;81.55
72262;BME280;60173;52.112;8.648;2022-09-20T07:13:43;101168.13;;;11.02;81.97
72262;BME280;60173;52.112;8.648;2022-09-20T07:16:12;101164.91;;;10.95;80.54
72262;BME280;60173;52.112;8.648;2022-09-20T07:18:38;101171.53;;;10.83;82.24
72262;BME280;60173;52.112;8.648;2022-09-20T07:21:05;101166.13;;;10.78;81.98
72262;BME280;60173;52.112;8.648;2022-09-20T07:23:32;101174.78;;;10.85;81.97
72262;BME280;60173;52.112;8.648;2022-09-20T07:25:58;101181.78;;;10.92;82.39
72262;BME280;60173;52.112;8.648;2022-09-20T07:28:26;101189.22;;;10.76;82.23
72262;BME280;60173;52.112;8.648;2022-09-20T07:30:53;101192.22;;;10.79;82.86
72262;BME280;60173;52.112;8.648;2022-09-20T07:33:19;101190.28;;;10.85;82.24
72262;BME280;60173;52.112;8.648;2022-09-20T07:35:49;101194.03;;;10.89;82.14
72262;BME280;60173;52.112;8.648;2022-09-20T07:38:15;101194.50;;;10.57;82.68
72262;BME280;60173;52.112;8.648;2022-09-20T07:40:42;101195.59;;;10.56;82.87
72262;BME280;60173;52.112;8.648;2022-09-20T07:43:08;101197.75;;;10.59;81.96
72262;BME280;60173;52.112;8.648;2022-09-20T07:45:35;101202.06;;;10.65;81.83
72262;BME280;60173;52.112;8.648;2022-09-20T07:48:01;101197.38;;;10.76;81.57
72262;BME280;60173;52.112;8.648;2022-09-20T07:50:28;101195.66;;;10.90;80.69
72262;BME280;60173;52.112;8.648;2022-09-20T07:52:55;101207.81;;;11.03;80.96
72262;BME280;60173;52.112;8.648;2022-09-20T07:55:21;101205.22;;;11.22;80.63
72262;BME280;60173;52.112;8.648;2022-09-20T07:57:47;101198.56;;;11.38;79.94
72262;BME280;60173;52.112;8.648;2022-09-20T08:00:14;101214.78;;;11.48;79.11
72262;BME280;60173;52.112;8.648;2022-09-20T08:02:40;101213.59;;;11.60;78.72
72262;BME280;60173;52.112;8.648;2022-09-20T08:05:07;101212.78;;;11.59;78.06
72262;BME280;60173;52.112;8.648;2022-09-20T08:07:33;101216.03;;;11.61;79.15
72262;BME280;60173;52.112;8.648;2022-09-20T08:09:59;101219.09;;;11.54;79.24
72262;BME280;60173;52.112;8.648;2022-09-20T08:12:26;101222.59;;;11.26;79.60
72262;BME280;60173;52.112;8.648;2022-09-20T08:15:12;101232.25;;;11.71;78.56
72262;BME280;60173;52.112;8.648;2022-09-20T08:17:39;101229.13;;;11.88;78.20
72262;BME280;60173;52.112;8.648;2022-09-20T08:20:05;101231.94;;;12.07;78.71
72262;BME280;60173;52.112;8.648;2022-09-20T08:22:32;101220.59;;;12.24;77.80
72262;BME280;60173;52.112;8.648;2022-09-20T08:24:58;101229.38;;;12.40;75.19
72262;BME280;60173;52.112;8.648;2022-09-20T08:27:25;101231.81;;;12.41;74.61
72262;BME280;60173;52.112;8.648;2022-09-20T08:29:51;101232.69;;;12.13;75.33
72262;BME280;60173;52.112;8.648;2022-09-20T08:32:17;101231.47;;;12.00;76.35
72262;BME280;60173;52.112;8.648;2022-09-20T08:34:44;101230.53;;;12.34;76.46
72262;BME280;60173;52.112;8.648;2022-09-20T08:37:14;101227.38;;;12.27;75.00
72262;BME280;60173;52.112;8.648;2022-09-20T08:39:41;101227.47;;;12.40;74.51
72262;BME280;60173;52.112;8.648;2022-09-20T08:42:30;101226.44;;;12.55;74.83
72262;BME280;60173;52.112;8.648;2022-09-20T08:45:11;101233.22;;;12.39;73.99
72262;BME280;60173;52.112;8.648;2022-09-20T08:47:54;101226.63;;;12.21;75.61
72262;BME280;60173;52.112;8.648;2022-09-20T08:50:24;101224.28;;;12.33;77.04
72262;BME280;60173;52.112;8.648;2022-09-20T08:52:53;101232.56;;;12.47;74.73
72262;BME280;60173;52.112;8.648;2022-09-20T08:55:26;101222.22;;;12.68;73.28
72262;BME280;60173;52.112;8.648;2022-09-20T08:57:55;101227.34;;;13.07;71.96
72262;BME280;60173;52.112;8.648;2022-09-20T09:00:24;101226.25;;;13.46;71.84
72262;BME280;60173;52.112;8.648;2022-09-20T09:02:54;101217.97;;;14.12;71.59
72262;BME280;60173;52.112;8.648;2022-09-20T09:08:08;101213.47;;;14.43;66.92
72262;BME280;60173;52.112;8.648;2022-09-20T09:10:37;101227.84;;;14.63;68.42
72262;BME280;60173;52.112;8.648;2022-09-20T09:13:17;101218.66;;;14.59;65.72
72262;BME280;60173;52.112;8.648;2022-09-20T09:15:52;101220.28;;;14.32;66.13
72262;BME280;60173;52.112;8.648;2022-09-20T09:18:19;101224.09;;;14.17;68.56
72262;BME280;60173;52.112;8.648;2022-09-20T09:20:45;101231.91;;;13.96;68.25
72262;BME280;60173;52.112;8.648;2022-09-20T09:23:22;101227.78;;;13.52;68.24
72262;BME280;60173;52.112;8.648;2022-09-20T09:25:49;101229.41;;;13.67;68.85
72262;BME280;60173;52.112;8.648;2022-09-20T09:28:16;101230.28;;;13.95;68.49
72262;BME280;60173;52.112;8.648;2022-09-20T09:30:46;101227.16;;;14.16;68.46
72262;BME280;60173;52.112;8.648;2022-09-20T09:35:42;101228.59;;;14.27;67.72
72262;BME280;60173;52.112;8.648;2022-09-20T09:38:17;101228.06;;;13.97;67.33
72262;BME280;60173;52.112;8.648;2022-09-20T09:40:50;101236.38;;;14.06;67.06
72262;BME280;60173;52.112;8.648;2022-09-20T09:43:25;101242.84;;;14.10;66.93
72262;BME280;60173;52.112;8.648;2022-09-20T09:45:53;101240.81;;;14.16;68.80
72262;BME280;60173;52.112;8.648;2022-09-20T09:48:28;101248.50;;;14.41;67.42
72262;BME280;60173;52.112;8.648;2022-09-20T09:51:13;101241.13;;;14.69;67.08
72262;BME280;60173;52.112;8.648;2022-09-20T09:53:40;101240.19;;;14.05;64.47
72262;BME280;60173;52.112;8.648;2022-09-20T10:01:53;101238.09;;;13.55;64.69
72262;BME280;60173;52.112;8.648;2022-09-20T10:04:34;101240.41;;;13.62;64.97
72262;BME280;60173;52.112;8.648;2022-09-20T10:07:09;101244.88;;;13.25;66.40
72262;BME280;60173;52.112;8.648;2022-09-20T10:15:39;101239.81;;;14.25;63.59
72262;BME280;60173;52.112;8.648;2022-09-20T10:18:29;101241.81;;;13.92;62.35
72262;BME280;60173;52.112;8.648;2022-09-20T10:23:59;101240.53;;;13.57;64.69
72262;BME280;60173;52.112;8.648;2022-09-20T10:26:56;101242.78;;;13.69;65.68
72262;BME280;60173;52.112;8.648;2022-09-20T10:29:48;101234.72;;;13.45;64.79
72262;BME280;60173;52.112;8.648;2022-09-20T10:42:47;101245.91;;;13.24;66.77
72262;BME280;60173;52.112;8.648;2022-09-20T10:45:23;101246.16;;;13.09;66.05
72262;BME280;60173;52.112;8.648;2022-09-20T10:48:25;101247.78;;;13.10;66.92
72262;BME280;60173;52.112;8.648;2022-09-20T10:56:43;101249.34;;;13.35;65.79
72262;BME280;60173;52.112;8.648;2022-09-20T10:59:28;101245.00;;;13.67;66.59
72262;BME280;60173;52.112;8.648;2022-09-20T11:07:53;101240.63;;;14.12;63.48
72262;BME280;60173;52.112;8.648;2022-09-20T11:10:28;101244.53;;;14.75;62.60
72262;BME280;60173;52.112;8.648;2022-09-20T11:13:02;101238.75;;;14.90;59.62
72262;BME280;60173;52.112;8.648;2022-09-20T11:15:35;101239.16;;;15.43;56.34
72262;BME280;60173;52.112;8.648;2022-09-20T11:18:24;101245.38;;;15.57;61.02
72262;BME280;60173;52.112;8.648;2022-09-20T11:21:23;101247.22;;;15.03;63.82
72262;BME280;60173;52.112;8.648;2022-09-20T11:24:04;101246.66;;;15.14;63.16
72262;BME280;60173;52.112;8.648;2022-09-20T11:26:40;101248.97;;;15.21;62.46
72262;BME280;60173;52.112;8.648;2022-09-20T11:31:51;101241.75;;;15.03;60.84
72262;BME280;60173;52.112;8.648;2022-09-20T11:34:27;101248.72;;;14.73;60.94
72262;BME280;60173;52.112;8.648;2022-09-20T11:36:57;101255.38;;;14.66;61.63
72262;BME280;60173;52.112;8.648;2022-09-20T11:39:42;101258.22;;;14.47;60.61
72262;BME280;60173;52.112;8.648;2022-09-20T11:42:14;101256.41;;;14.43;60.93
72262;BME280;60173;52.112;8.648;2022-09-20T11:44:41;101253.59;;;14.62;61.31
72262;BME280;60173;52.112;8.648;2022-09-20T11:47:16;101251.38;;;14.64;59.64
72262;BME280;60173;52.112;8.648;2022-09-20T11:50:31;101250.25;;;14.65;60.91
72262;BME280;60173;52.112;8.648;2022-09-20T11:53:26;101257.22;;;14.71;59.33
72262;BME280;60173;52.112;8.648;2022-09-20T11:56:11;101256.19;;;14.25;57.22
72262;BME280;60173;52.112;8.648;2022-09-20T11:58:51;101252.84;;;14.42;56.96
72262;BME280;60173;52.112;8.648;2022-09-20T12:01:38;101253.00;;;15.24;56.24
72262;BME280;60173;52.112;8.648;2022-09-20T12:04:10;101245.78;;;15.95;56.34
72262;BME280;60173;52.112;8.648;2022-09-20T12:07:04;101249.66;;;16.43;55.50
72262;BME280;60173;52.112;8.648;2022-09-20T12:09:41;101244.41;;;16.72;54.22
72262;BME280;60173;52.112;8.648;2022-09-20T12:14:59;101249.47;;;15.23;57.12
72262;BME280;60173;52.112;8.648;2022-09-20T12:36:35;101238.50;;;15.01;58.22
72262;BME280;60173;52.112;8.648;2022-09-20T12:39:14;101239.25;;;15.15;59.97
72262;BME280;60173;52.112;8.648;2022-09-20T12:52:22;101238.22;;;15.02;56.33
72262;BME280;60173;52.112;8.648;2022-09-20T12:54:51;101234.19;;;15.22;55.57
72262;BME280;60173;52.112;8.648;2022-09-20T12:57:28;101236.84;;;15.58;57.14
72262;BME280;60173;52.112;8.648;2022-09-20T12:59:57;101230.91;;;15.88;55.46
72262;BME280;60173;52.112;8.648;2022-09-20T13:05:33;101223.47;;;16.19;51.11
72262;BME280;60173;52.112;8.648;2022-09-20T13:10:56;101223.84;;;15.95;51.33
72262;BME280;60173;52.112;8.648;2022-09-20T13:19:04;101230.56;;;15.80;51.93
72262;BME280;60173;52.112;8.648;2022-09-20T13:21:33;101233.28;;;16.12;51.48
72262;BME280;60173;52.112;8.648;2022-09-20T13:24:01;101226.47;;;16.49;50.27
72262;BME280;60173;52.112;8.648;2022-09-20T13:26:33;101224.56;;;16.76;49.81
72262;BME280;60173;52.112;8.648;2022-09-20T13:29:01;101235.75;;;17.05;49.58
72262;BME280;60173;52.112;8.648;2022-09-20T13:31:30;101229.63;;;17.17;49.55
72262;BME280;60173;52.112;8.648;2022-09-20T13:34:19;101231.53;;;17.34;49.65
72262;BME280;60173;52.112;8.648;2022-09-20T13:36:47;101226.88;;;17.26;51.20
72262;BME280;60173;52.112;8.648;2022-09-20T13:39:25;101228.13;;;17.54;51.12
72262;BME280;60173;52.112;8.648;2022-09-20T13:41:52;101225.19;;;17.59;50.01
72262;BME280;60173;52.112;8.648;2022-09-20T13:44:19;101226.06;;;17.34;49.93
72262;BME280;60173;52.112;8.648;2022-09-20T13:46:45;101227.38;;;17.10;50.80
72262;BME280;60173;52.112;8.648;2022-09-20T13:49:17;101235.84;;;16.65;52.31
72262;BME280;60173;52.112;8.648;2022-09-20T13:51:43;101234.16;;;15.67;54.86
72262;BME280;60173;52.112;8.648;2022-09-20T13:54:36;101244.03;;;14.87;59.06
72262;BME280;60173;52.112;8.648;2022-09-20T13:57:04;101250.34;;;14.60;58.39
72262;BME280;60173;52.112;8.648;2022-09-20T13:59:41;101256.22;;;14.12;59.76
72262;BME280;60173;52.112;8.648;2022-09-20T14:02:25;101256.22;;;14.12;59.43
72262;BME280;60173;52.112;8.648;2022-09-20T14:04:53;101260.78;;;13.70;61.55
72262;BME280;60173;52.112;8.648;2022-09-20T14:07:22;101267.44;;;13.64;63.71
72262;BME280;60173;52.112;8.648;2022-09-20T14:09:49;101263.84;;;13.49;67.12
72262;BME280;60173;52.112;8.648;2022-09-20T14:12:15;101263.91;;;13.63;67.06
72262;BME280;60173;52.112;8.648;2022-09-20T14:14:42;101267.47;;;13.77;67.49
72262;BME280;60173;52.112;8.648;2022-09-20T14:17:14;101264.03;;;13.72;68.04
72262;BME280;60173;52.112;8.648;2022-09-20T14:19:41;101268.19;;;13.50;65.55
72262;BME280;60173;52.112;8.648;2022-09-20T14:22:19;101268.97;;;13.37;67.19
72262;BME280;60173;52.112;8.648;2022-09-20T14:25:18;101264.91;;;13.34;67.51
72262;BME280;60173;52.112;8.648;2022-09-20T14:27:44;101270.16;;;13.31;67.05
72262;BME280;60173;52.112;8.648;2022-09-20T14:30:31;101275.69;;;13.59;66.12
72262;BME280;60173;52.112;8.648;2022-09-20T14:32:58;101260.00;;;13.83;66.69
72262;BME280;60173;52.112;8.648;2022-09-20T14:35:25;101267.34;;;14.15;66.63
72262;BME280;60173;52.112;8.648;2022-09-20T14:37:56;101265.91;;;14.04;65.08
72262;BME280;60173;52.112;8.648;2022-09-20T14:40:32;101280.53;;;13.29;69.39
72262;BME280;60173;52.112;8.648;2022-09-20T14:43:37;101277.19;;;13.84;68.11
72262;BME280;60173;52.112;8.648;2022-09-20T14:46:15;101281.69;;;14.07;63.35
72262;BME280;60173;52.112;8.648;2022-09-20T14:48:42;101274.25;;;13.80;60.71
72262;BME280;60173;52.112;8.648;2022-09-20T14:53:41;101276.97;;;14.27;60.22
72262;BME280;60173;52.112;8.648;2022-09-20T14:56:10;101280.06;;;14.20;61.05
72262;BME280;60173;52.112;8.648;2022-09-20T14:59:00;101287.19;;;13.88;61.89
72262;BME280;60173;52.112;8.648;2022-09-20T15:01:26;101286.09;;;13.89;62.63
72262;BME280;60173;52.112;8.648;2022-09-20T15:03:53;101284.09;;;13.95;62.27
72262;BME280;60173;52.112;8.648;2022-09-20T15:06:21;101293.00;;;14.00;66.69
72262;BME280;60173;52.112;8.648;2022-09-20T15:08:48;101285.06;;;13.85;68.57
72262;BME280;60173;52.112;8.648;2022-09-20T15:11:17;101294.50;;;13.60;70.05
72262;BME280;60173;52.112;8.648;2022-09-20T15:13:44;101286.88;;;13.76;70.43
72262;BME280;60173;52.112;8.648;2022-09-20T15:16:16;101288.75;;;13.94;69.56
72262;BME280;60173;52.112;8.648;2022-09-20T15:18:43;101292.72;;;14.16;69.65
72262;BME280;60173;52.112;8.648;2022-09-20T15:21:10;101284.69;;;14.06;69.10
72262;BME280;60173;52.112;8.648;2022-09-20T15:23:37;101295.75;;;13.68;70.21
72262;BME280;60173;52.112;8.648;2022-09-20T15:26:04;101286.41;;;13.36;70.62
72262;BME280;60173;52.112;8.648;2022-09-20T15:28:32;101290.19;;;13.73;69.25
72262;BME280;60173;52.112;8.648;2022-09-20T15:30:58;101290.19;;;13.40;70.12
72262;BME280;60173;52.112;8.648;2022-09-20T15:33:29;101300.50;;;13.43;71.16
72262;BME280;60173;52.112;8.648;2022-09-20T15:35:56;101295.81;;;13.95;69.25
72262;BME280;60173;52.112;8.648;2022-09-20T15:38:25;101293.00;;;14.00;67.53
72262;BME280;60173;52.112;8.648;2022-09-20T15:40:55;101297.16;;;13.98;67.48
72262;BME280;60173;52.112;8.648;2022-09-20T15:43:23;101299.47;;;13.39;68.34
72262;BME280;60173;52.112;8.648;2022-09-20T15:46:00;101294.16;;;13.48;66.59
72262;BME280;60173;52.112;8.648;2022-09-20T15:48:41;101296.78;;;13.53;64.89
72262;BME280;60173;52.112;8.648;2022-09-20T15:51:09;101304.78;;;13.49;65.17
72262;BME280;60173;52.112;8.648;2022-09-20T15:53:37;101302.19;;;13.39;64.61
72262;BME280;60173;52.112;8.648;2022-09-20T15:56:15;101299.56;;;13.34;64.56
72262;BME280;60173;52.112;8.648;2022-09-20T15:58:44;101295.56;;;13.26;64.75
72262;BME280;60173;52.112;8.648;2022-09-20T16:01:13;101291.66;;;13.14;64.47
72262;BME280;60173;52.112;8.648;2022-09-20T16:03:40;101291.72;;;13.27;64.47
72262;BME280;60173;52.112;8.648;2022-09-20T16:06:09;101289.75;;;13.33;64.81
72262;BME280;60173;52.112;8.648;2022-09-20T16:08:40;101291.28;;;13.39;64.76
72262;BME280;60173;52.112;8.648;2022-09-20T16:11:12;101297.75;;;13.24;64.69
72262;BME280;60173;52.112;8.648;2022-09-20T16:13:38;101303.00;;;13.21;64.54
72262;BME280;60173;52.112;8.648;2022-09-20T16:16:07;101290.00;;;13.12;64.77
72262;BME280;60173;52.112;8.648;2022-09-20T16:18:37;101300.22;;;13.26;64.74
72262;BME280;60173;52.112;8.648;2022-09-20T16:21:06;101295.66;;;13.40;64.63
72262;BME280;60173;52.112;8.648;2022-09-20T16:23:32;101300.13;;;13.50;64.33
72262;BME280;60173;52.112;8.648;2022-09-20T16:25:58;101301.84;;;13.46;65.19
72262;BME280;60173;52.112;8.648;2022-09-20T16:28:25;101308.25;;;13.55;65.65
72262;BME280;60173;52.112;8.648;2022-09-20T16:30:55;101311.44;;;13.43;66.96
72262;BME280;60173;52.112;8.648;2022-09-20T16:33:22;101308.69;;;13.43;66.74
72262;BME280;60173;52.112;8.648;2022-09-20T16:35:48;101309.09;;;13.12;66.17
72262;BME280;60173;52.112;8.648;2022-09-20T16:38:18;101306.03;;;13.19;66.80
72262;BME280;60173;52.112;8.648;2022-09-20T16:40:49;101304.75;;;13.11;66.20
72262;BME280;60173;52.112;8.648;2022-09-20T16:43:16;101314.41;;;13.04;67.41
72262;BME280;60173;52.112;8.648;2022-09-20T16:45:43;101316.09;;;13.00;67.11
72262;BME280;60173;52.112;8.648;2022-09-20T16:48:10;101317.50;;;12.97;67.81
72262;BME280;60173;52.112;8.648;2022-09-20T16:50:36;101321.34;;;12.96;68.20
72262;BME280;60173;52.112;8.648;2022-09-20T16:53:05;101324.06;;;12.96;68.33
72262;BME280;60173;52.112;8.648;2022-09-20T16:55:32;101325.22;;;12.90;68.30
72262;BME280;60173;52.112;8.648;2022-09-20T16:58:07;101329.06;;;12.89;69.19
72262;BME280;60173;52.112;8.648;2022-09-20T17:00:34;101325.78;;;12.87;69.17
72262;BME280;60173;52.112;8.648;2022-09-20T17:03:00;101328.66;;;12.77;69.61
72262;BME280;60173;52.112;8.648;2022-09-20T17:05:27;101331.63;;;12.56;69.87
72262;BME280;60173;52.112;8.648;2022-09-20T17:07:53;101332.84;;;12.45;70.95
72262;BME280;60173;52.112;8.648;2022-09-20T17:10:40;101340.50;;;12.43;70.15
72262;BME280;60173;52.112;8.648;2022-09-20T17:13:06;101342.75;;;12.36;68.99